createdAt,value
2019-03-20T00:00:36.893Z,26.95
2019-03-20T00:02:38.135Z,30.20
2019-03-20T00:04:49.223Z,27.77
2019-03-20T00:06:42.575Z,27.20
2019-03-20T00:08:43.724Z,23.67
2019-03-20T00:10:44.954Z,32.65
2019-03-20T00:12:46.385Z,30.95
2019-03-20T00:14:47.531Z,31.75
2019-03-20T00:16:49.685Z,27.13
2019-03-20T00:18:50.940Z,25.77
2019-03-20T00:20:52.075Z,24.40
2019-03-20T00:22:53.240Z,30.90
2019-03-20T00:24:54.380Z,23.87
2019-03-20T00:26:57.421Z,24.57
2019-03-20T00:28:58.820Z,22.60
2019-03-20T00:31:00.007Z,18.92
2019-03-20T00:33:01.469Z,22.13
2019-03-20T00:35:03.618Z,23.25
2019-03-20T00:37:05.182Z,24.23
2019-03-20T00:39:06.836Z,21.85
2019-03-20T00:43:09.017Z,18.30
2019-03-20T00:45:12.358Z,19.57
2019-03-20T00:47:13.753Z,18.87
2019-03-20T00:49:14.897Z,16.50
2019-03-20T00:51:16.036Z,17.02
2019-03-20T00:53:17.487Z,15.55
2019-03-20T00:55:18.933Z,19.20
2019-03-20T00:57:20.091Z,17.10
2019-03-20T00:59:21.236Z,23.67
2019-03-20T01:01:22.378Z,20.48
2019-03-20T01:03:23.527Z,18.45
2019-03-20T01:05:27.467Z,17.10
2019-03-20T01:07:28.616Z,22.73
2019-03-20T01:09:30.173Z,18.30
2019-03-20T01:11:31.393Z,26.52
2019-03-20T01:13:32.558Z,21.42
2019-03-20T01:15:33.947Z,20.17
2019-03-20T01:17:35.083Z,24.15
2019-03-20T01:19:36.233Z,19.50
2019-03-20T01:21:37.373Z,18.95
2019-03-20T01:23:38.537Z,16.95
2019-03-20T01:25:40.018Z,18.55
2019-03-20T01:27:41.150Z,17.52
2019-03-20T01:29:42.658Z,9.78
2019-03-20T01:31:43.804Z,19.80
2019-03-20T01:33:45.284Z,15.90
2019-03-20T01:35:46.505Z,19.00
2019-03-20T01:37:47.642Z,20.08
2019-03-20T01:39:48.803Z,16.12
2019-03-20T01:41:50.026Z,14.47
2019-03-20T01:43:51.182Z,18.12
2019-03-20T01:45:52.317Z,18.25
2019-03-20T01:47:53.545Z,20.97
2019-03-20T01:49:55.010Z,17.40
2019-03-20T01:51:56.146Z,16.40
2019-03-20T01:53:57.390Z,19.75
2019-03-20T01:55:58.538Z,19.55
2019-03-20T01:57:59.766Z,17.35
2019-03-20T02:00:00.973Z,18.25
2019-03-20T02:02:02.301Z,17.02
2019-03-20T02:04:03.454Z,18.27
2019-03-20T02:06:04.770Z,12.05
2019-03-20T02:08:07.111Z,15.88
2019-03-20T02:10:13.293Z,17.10
2019-03-20T02:12:14.709Z,17.85
2019-03-20T02:14:15.873Z,15.32
2019-03-20T02:16:17.009Z,16.15
2019-03-20T02:18:18.155Z,15.60
2019-03-20T02:20:19.990Z,14.47
2019-03-20T02:22:21.137Z,13.43
2019-03-20T02:24:22.286Z,16.75
2019-03-20T02:26:23.485Z,14.90
2019-03-20T02:28:24.629Z,17.95
2019-03-20T02:30:25.817Z,14.55
2019-03-20T02:32:27.070Z,20.55
2019-03-20T02:34:28.586Z,18.70
2019-03-20T02:36:29.807Z,16.62
2019-03-20T02:38:30.953Z,18.07
2019-03-20T02:40:32.098Z,8.78
2019-03-20T02:42:33.242Z,22.00
2019-03-20T02:44:34.690Z,20.30
2019-03-20T02:46:35.841Z,20.62
2019-03-20T02:48:37.073Z,17.75
2019-03-20T02:50:38.230Z,18.07
2019-03-20T02:52:39.385Z,17.07
2019-03-20T02:54:40.627Z,16.27
2019-03-20T02:56:42.063Z,16.45
2019-03-20T02:58:43.486Z,17.70
2019-03-20T03:00:44.716Z,18.02
2019-03-20T03:02:45.869Z,16.65
2019-03-20T03:04:47.093Z,15.05
2019-03-20T03:06:48.254Z,18.10
2019-03-20T03:08:49.689Z,21.07
2019-03-20T03:10:50.854Z,17.98
2019-03-20T03:12:52.078Z,16.25
2019-03-20T03:14:53.315Z,18.62
2019-03-20T03:16:54.457Z,15.80
2019-03-20T03:18:55.601Z,16.85
2019-03-20T03:20:57.042Z,17.23
2019-03-20T03:22:58.194Z,26.33
2019-03-20T03:24:59.671Z,14.23
2019-03-20T03:27:00.844Z,17.57
2019-03-20T03:29:02.078Z,16.17
2019-03-20T03:31:03.292Z,17.73
2019-03-20T03:33:04.506Z,18.50
2019-03-20T03:35:06.111Z,15.72
2019-03-20T03:39:08.630Z,15.63
2019-03-20T03:41:10.183Z,13.48
2019-03-20T03:45:14.051Z,16.97
2019-03-20T03:47:15.195Z,14.43
2019-03-20T03:49:16.335Z,14.03
2019-03-20T03:51:17.734Z,13.18
2019-03-20T03:53:19.191Z,13.45
2019-03-20T03:55:20.447Z,13.38
2019-03-20T03:57:21.706Z,11.18
2019-03-20T03:59:22.841Z,10.72
2019-03-20T04:01:23.990Z,14.47
2019-03-20T04:03:25.381Z,12.33
2019-03-20T04:05:26.531Z,14.95
2019-03-20T04:07:27.673Z,17.10
2019-03-20T04:09:28.815Z,7.83
2019-03-20T04:11:30.247Z,12.23
2019-03-20T04:13:31.691Z,13.38
2019-03-20T04:15:36.254Z,14.58
2019-03-20T04:17:35.877Z,20.37
2019-03-20T04:19:37.012Z,11.80
2019-03-20T04:21:38.169Z,8.53
2019-03-20T04:23:39.391Z,11.25
2019-03-20T04:25:40.575Z,11.00
2019-03-20T04:27:41.718Z,13.05
2019-03-20T04:29:43.292Z,9.83
2019-03-20T04:31:44.517Z,13.03
2019-03-20T04:33:45.987Z,8.30
2019-03-20T04:35:47.154Z,18.35
2019-03-20T04:37:48.294Z,15.40
2019-03-20T04:39:49.780Z,13.72
2019-03-20T04:41:50.944Z,10.82
2019-03-20T04:43:52.167Z,10.80
2019-03-20T04:45:53.325Z,12.15
2019-03-20T04:47:54.746Z,11.93
2019-03-20T04:49:56.018Z,15.63
2019-03-20T04:51:57.266Z,11.38
2019-03-20T04:53:58.414Z,12.43
2019-03-20T04:55:59.569Z,14.50
2019-03-20T04:58:01.061Z,13.88
2019-03-20T05:00:08.451Z,12.65
2019-03-20T05:02:09.596Z,12.00
2019-03-20T05:04:11.035Z,12.63
2019-03-20T05:06:12.637Z,13.40
2019-03-20T05:10:16.089Z,11.97
2019-03-20T05:12:17.250Z,12.95
2019-03-20T05:14:18.640Z,12.13
2019-03-20T05:16:20.125Z,13.70
2019-03-20T05:18:21.386Z,16.45
2019-03-20T05:20:22.823Z,12.15
2019-03-20T05:22:23.974Z,12.23
2019-03-20T05:24:25.192Z,13.08
2019-03-20T05:26:26.424Z,17.57
2019-03-20T05:28:27.700Z,12.00
2019-03-20T05:30:28.881Z,15.28
2019-03-20T05:32:30.082Z,13.90
2019-03-20T05:34:31.294Z,12.40
2019-03-20T05:36:32.850Z,15.70
2019-03-20T05:38:33.990Z,13.18
2019-03-20T05:40:35.211Z,12.73
2019-03-20T05:42:36.415Z,12.93
2019-03-20T05:44:37.631Z,11.65
2019-03-20T05:46:39.097Z,9.23
2019-03-20T05:48:40.243Z,11.03
2019-03-20T05:50:41.381Z,14.63
2019-03-20T05:52:42.535Z,8.58
2019-03-20T05:54:43.678Z,12.30
2019-03-20T05:56:44.839Z,11.18
2019-03-20T05:58:45.993Z,12.10
2019-03-20T06:00:47.142Z,12.28
2019-03-20T06:02:48.406Z,12.93
2019-03-20T06:04:49.837Z,9.78
2019-03-20T06:06:50.996Z,15.48
2019-03-20T06:08:52.195Z,12.43
2019-03-20T06:10:53.371Z,14.85
2019-03-20T06:12:54.794Z,12.58
2019-03-20T06:14:55.927Z,13.53
2019-03-20T06:16:57.082Z,15.03
2019-03-20T06:18:58.216Z,11.40
2019-03-20T06:20:59.382Z,18.12
2019-03-20T06:23:00.520Z,18.10
2019-03-20T06:25:02.120Z,10.15
2019-03-20T06:29:04.639Z,10.93
2019-03-20T06:31:05.769Z,10.45
2019-03-20T06:33:06.997Z,18.48
2019-03-20T06:35:08.534Z,12.50
2019-03-20T06:39:11.037Z,11.57
2019-03-20T06:41:12.269Z,11.90
2019-03-20T06:43:13.458Z,10.82
2019-03-20T06:45:21.544Z,15.60
2019-03-20T06:47:23.004Z,12.73
2019-03-20T06:49:24.541Z,14.65
2019-03-20T06:53:27.109Z,14.10
2019-03-20T06:55:28.290Z,15.45
2019-03-20T06:57:29.479Z,14.10
2019-03-20T06:59:34.438Z,14.40
2019-03-20T07:01:35.614Z,15.78
2019-03-20T07:03:46.713Z,11.38
2019-03-20T07:05:51.663Z,11.40
2019-03-20T07:07:52.913Z,14.38
2019-03-20T07:10:06.403Z,12.80
2019-03-20T07:12:07.570Z,24.45
2019-03-20T07:14:08.712Z,32.88
2019-03-20T07:16:09.859Z,45.60
2019-03-20T07:18:11.358Z,43.02
2019-03-20T07:20:12.499Z,28.87
2019-03-20T07:22:13.645Z,24.95
2019-03-20T07:24:14.789Z,54.55
2019-03-20T07:26:15.939Z,38.90
2019-03-20T07:28:17.091Z,45.52
2019-03-20T07:30:18.545Z,42.78
2019-03-20T07:32:19.697Z,37.75
2019-03-20T07:34:21.234Z,36.53
2019-03-20T07:36:22.374Z,32.10
2019-03-20T07:38:23.532Z,37.67
2019-03-20T07:40:24.667Z,33.18
2019-03-20T07:42:25.814Z,40.85
2019-03-20T07:44:27.214Z,31.65
2019-03-20T07:46:28.551Z,37.55
2019-03-20T07:48:29.971Z,28.55
2019-03-20T07:50:31.158Z,37.60
2019-03-20T07:52:32.318Z,29.67
2019-03-20T07:54:33.537Z,27.17
2019-03-20T07:56:34.691Z,30.85
2019-03-20T07:58:35.844Z,32.58
2019-03-20T08:00:36.979Z,28.55
2019-03-20T08:02:38.422Z,18.95
2019-03-20T08:04:39.647Z,25.62
2019-03-20T08:06:40.882Z,33.80
2019-03-20T08:08:42.382Z,29.57
2019-03-20T08:10:43.517Z,30.27
2019-03-20T08:12:44.670Z,29.40
2019-03-20T08:14:45.806Z,35.80
2019-03-20T08:16:47.209Z,33.23
2019-03-20T08:18:48.350Z,28.73
2019-03-20T08:20:49.491Z,29.57
2019-03-20T08:22:50.686Z,24.77
2019-03-20T08:24:51.889Z,26.65
2019-03-20T08:26:53.022Z,25.82
2019-03-20T08:28:54.165Z,30.00
2019-03-20T08:30:55.310Z,20.57
2019-03-20T08:32:56.709Z,27.55
2019-03-20T08:34:57.967Z,29.32
2019-03-20T08:36:59.114Z,25.70
2019-03-20T08:39:00.266Z,27.22
2019-03-20T08:41:01.401Z,25.68
2019-03-20T08:43:02.628Z,31.17
2019-03-20T08:45:07.686Z,27.93
2019-03-20T08:47:09.034Z,35.23
2019-03-20T08:49:10.237Z,29.52
2019-03-20T08:51:11.728Z,19.30
2019-03-20T08:53:13.117Z,26.62
2019-03-20T08:55:15.568Z,25.97
2019-03-20T08:57:16.962Z,30.37
2019-03-20T08:59:18.238Z,20.80
2019-03-20T09:01:28.213Z,24.07
2019-03-20T09:03:22.513Z,26.48
2019-03-20T09:05:23.649Z,20.60
2019-03-20T09:07:24.785Z,14.25
2019-03-20T09:09:25.932Z,14.90
2019-03-20T09:11:27.070Z,20.12
2019-03-20T09:13:28.464Z,21.15
2019-03-20T09:15:29.622Z,18.98
2019-03-20T09:17:30.812Z,19.42
2019-03-20T09:19:32.058Z,18.77
2019-03-20T09:21:33.220Z,16.17
2019-03-20T09:23:34.370Z,18.12
2019-03-20T09:25:35.745Z,19.10
2019-03-20T09:27:36.885Z,16.48
2019-03-20T09:29:38.025Z,19.98
2019-03-20T09:31:39.413Z,20.20
2019-03-20T09:33:40.567Z,14.90
2019-03-20T09:35:41.949Z,12.47
2019-03-20T09:37:51.331Z,17.40
2019-03-20T09:39:46.140Z,17.23
2019-03-20T09:41:47.525Z,13.88
2019-03-20T09:43:48.693Z,14.23
2019-03-20T09:45:50.069Z,16.05
2019-03-20T09:47:51.469Z,22.02
2019-03-20T09:49:52.619Z,17.82
2019-03-20T09:51:54.009Z,16.00
2019-03-20T09:53:55.157Z,17.23
2019-03-20T09:55:56.554Z,16.70
2019-03-20T09:57:58.189Z,19.82
2019-03-20T10:02:02.777Z,17.32
2019-03-20T10:04:03.611Z,16.07
2019-03-20T10:06:04.762Z,21.00
2019-03-20T10:08:05.894Z,17.50
2019-03-20T10:10:13.415Z,17.62
2019-03-20T10:12:14.607Z,17.17
2019-03-20T10:14:15.749Z,22.30
2019-03-20T10:16:16.898Z,16.42
2019-03-20T10:18:18.097Z,18.40
2019-03-20T10:20:20.065Z,17.77
2019-03-20T10:22:21.457Z,17.57
2019-03-20T10:24:22.607Z,18.12
2019-03-20T10:26:23.746Z,18.98
2019-03-20T10:28:24.890Z,17.92
2019-03-20T10:30:27.160Z,19.67
2019-03-20T10:32:28.337Z,15.28
2019-03-20T10:34:39.174Z,16.50
2019-03-20T10:36:32.543Z,18.80
2019-03-20T10:38:33.680Z,17.63
2019-03-20T10:40:34.858Z,18.87
2019-03-20T10:42:35.994Z,22.60
2019-03-20T10:44:37.146Z,20.57
2019-03-20T10:46:38.293Z,20.97
2019-03-20T10:48:39.523Z,19.27
2019-03-20T10:50:40.707Z,19.17
2019-03-20T10:52:41.841Z,20.32
2019-03-20T10:54:43.000Z,19.65
2019-03-20T10:56:44.152Z,17.00
2019-03-20T10:58:45.298Z,20.02
2019-03-20T11:00:46.457Z,15.25
2019-03-20T11:02:47.600Z,18.35
2019-03-20T11:04:48.749Z,22.35
2019-03-20T11:06:49.981Z,22.32
2019-03-20T11:08:51.132Z,17.35
2019-03-20T11:10:52.374Z,21.80
2019-03-20T11:12:53.713Z,18.92
2019-03-20T11:14:54.944Z,18.73
2019-03-20T11:16:56.197Z,19.60
2019-03-20T11:18:57.343Z,21.05
2019-03-20T11:20:58.487Z,14.75
2019-03-20T11:22:59.759Z,14.80
2019-03-20T11:25:00.929Z,22.07
2019-03-20T11:27:02.426Z,22.22
2019-03-20T11:31:04.834Z,18.00
2019-03-20T11:33:06.296Z,20.80
2019-03-20T11:35:07.642Z,18.95
2019-03-20T11:37:08.917Z,22.40
2019-03-20T11:39:10.309Z,22.42
2019-03-20T11:41:11.497Z,20.17
2019-03-20T11:43:12.635Z,17.85
2019-03-20T11:45:13.865Z,16.02
2019-03-20T11:47:15.018Z,22.40
2019-03-20T11:49:16.485Z,16.07
2019-03-20T11:51:17.748Z,22.10
2019-03-20T11:55:20.198Z,14.75
2019-03-20T11:57:21.772Z,18.70
2019-03-20T12:01:24.838Z,18.75
2019-03-20T12:03:26.283Z,16.77
2019-03-20T12:05:27.432Z,19.32
2019-03-20T12:07:28.566Z,15.43
2019-03-20T12:09:40.466Z,16.55
2019-03-20T12:11:33.089Z,16.12
2019-03-20T12:13:34.225Z,16.37
2019-03-20T12:15:35.413Z,14.38
2019-03-20T12:17:36.554Z,17.75
2019-03-20T12:19:44.827Z,13.60
2019-03-20T12:21:40.749Z,14.33
2019-03-20T12:23:42.198Z,15.95
2019-03-20T12:25:43.733Z,20.55
2019-03-20T12:27:45.969Z,18.20
2019-03-20T12:29:47.445Z,15.48
2019-03-20T12:31:48.602Z,18.55
2019-03-20T12:33:49.845Z,18.57
2019-03-20T12:35:51.001Z,15.72
2019-03-20T12:37:52.133Z,14.18
2019-03-20T12:39:53.744Z,17.75
2019-03-20T12:43:56.654Z,18.37
2019-03-20T12:45:58.259Z,15.83
2019-03-20T12:47:59.730Z,13.58
2019-03-20T12:50:00.870Z,14.03
2019-03-20T12:52:02.030Z,16.80
2019-03-20T12:54:03.167Z,16.90
2019-03-20T12:56:04.325Z,16.95
2019-03-20T12:58:05.469Z,20.65
2019-03-20T13:00:12.855Z,18.17
2019-03-20T13:02:14.085Z,15.85
2019-03-20T13:04:15.306Z,14.47
2019-03-20T13:06:16.455Z,13.45
2019-03-20T13:08:17.592Z,32.60
2019-03-20T13:10:21.482Z,15.38
2019-03-20T13:12:22.731Z,17.15
2019-03-20T13:14:24.119Z,17.70
2019-03-20T13:16:25.270Z,12.85
2019-03-20T13:18:26.661Z,15.48
2019-03-20T13:20:28.051Z,16.60
2019-03-20T13:22:29.188Z,18.20
2019-03-20T13:24:30.472Z,16.77
2019-03-20T13:26:31.633Z,13.90
2019-03-20T13:28:32.777Z,15.50
2019-03-20T13:30:48.885Z,12.58
2019-03-20T13:32:49.879Z,12.70
2019-03-20T13:34:51.022Z,16.55
2019-03-20T13:36:52.203Z,13.72
2019-03-20T13:38:53.342Z,13.13
2019-03-20T13:40:54.482Z,15.43
2019-03-20T13:42:55.730Z,16.07
2019-03-20T13:44:56.935Z,13.95
2019-03-20T13:46:58.119Z,12.33
2019-03-20T13:48:59.254Z,16.77
2019-03-20T13:51:00.398Z,17.23
2019-03-20T13:53:01.854Z,18.95
2019-03-20T13:55:05.593Z,17.15
2019-03-20T13:57:07.011Z,16.93
2019-03-20T13:59:08.411Z,17.52
2019-03-20T14:01:09.550Z,17.48
2019-03-20T14:03:10.801Z,14.63
2019-03-20T14:05:12.335Z,14.53
2019-03-20T14:07:13.481Z,20.15
2019-03-20T14:09:14.702Z,15.15
2019-03-20T14:11:15.846Z,15.88
2019-03-20T14:13:17.092Z,17.98
2019-03-20T14:15:19.179Z,17.48
2019-03-20T14:17:20.329Z,15.38
2019-03-20T14:19:21.535Z,24.98
2019-03-20T14:21:22.676Z,18.75
2019-03-20T14:23:23.826Z,15.03
2019-03-20T14:25:25.276Z,17.40
2019-03-20T14:27:26.717Z,15.80
2019-03-20T14:29:28.114Z,18.73
2019-03-20T14:31:29.713Z,16.40
2019-03-20T14:33:31.265Z,21.55
2019-03-20T14:35:32.510Z,15.45
2019-03-20T14:37:33.738Z,14.45
2019-03-20T14:39:34.977Z,16.50
2019-03-20T14:41:36.368Z,17.85
2019-03-20T14:43:37.517Z,15.45
2019-03-20T14:47:42.317Z,13.55
2019-03-20T14:49:43.245Z,13.98
2019-03-20T14:51:44.402Z,15.25
2019-03-20T14:53:45.566Z,14.60
2019-03-20T14:55:46.976Z,20.68
2019-03-20T14:57:48.130Z,17.30
2019-03-20T14:59:49.285Z,15.60
2019-03-20T15:01:50.674Z,12.73
2019-03-20T15:03:52.151Z,20.52
2019-03-20T15:05:53.293Z,20.97
2019-03-20T15:07:54.499Z,18.15
2019-03-20T15:09:55.653Z,17.87
2019-03-20T15:11:56.798Z,16.42
2019-03-20T15:13:58.306Z,16.77
2019-03-20T15:16:06.253Z,18.15
2019-03-20T15:18:07.397Z,21.00
2019-03-20T15:20:08.637Z,18.42
2019-03-20T15:22:10.018Z,20.10
2019-03-20T15:24:11.177Z,16.23
2019-03-20T15:26:12.313Z,13.98
2019-03-20T15:28:13.772Z,12.58
2019-03-20T15:30:18.341Z,10.10
2019-03-20T15:32:19.494Z,10.65
2019-03-20T15:34:20.649Z,11.48
2019-03-20T15:36:21.867Z,9.73
2019-03-20T15:38:23.009Z,13.95
2019-03-20T15:40:25.451Z,7.97
2019-03-20T15:42:26.597Z,10.95
2019-03-20T15:44:27.841Z,10.58
2019-03-20T15:46:29.066Z,9.55
2019-03-20T15:48:30.230Z,10.68
2019-03-20T15:50:31.376Z,12.78
2019-03-20T15:52:32.505Z,9.08
2019-03-20T15:54:33.658Z,9.48
2019-03-20T15:56:34.809Z,12.88
2019-03-20T15:58:35.958Z,16.75
2019-03-20T16:00:37.101Z,14.75
2019-03-20T16:02:38.254Z,8.60
2019-03-20T16:04:39.419Z,11.28
2019-03-20T16:06:40.574Z,8.55
2019-03-20T16:08:41.817Z,10.78
2019-03-20T16:10:42.989Z,11.80
2019-03-20T16:12:44.121Z,9.03
2019-03-20T16:14:45.566Z,15.60
2019-03-20T16:16:46.784Z,15.80
2019-03-20T16:18:47.932Z,29.70
2019-03-20T16:20:49.078Z,42.83
2019-03-20T16:22:50.221Z,24.00
2019-03-20T16:24:51.365Z,44.73
2019-03-20T16:26:55.453Z,23.27
2019-03-20T16:28:56.797Z,17.77
2019-03-20T16:30:57.949Z,42.95
2019-03-20T16:32:59.153Z,40.20
2019-03-20T16:35:00.433Z,103.92
2019-03-20T16:37:01.577Z,21.23
2019-03-20T16:39:05.731Z,32.95
2019-03-20T16:41:16.447Z,92.27
2019-03-20T16:43:10.373Z,73.02
2019-03-20T16:45:27.185Z,65.55
2019-03-20T16:47:28.353Z,30.92
2019-03-20T16:49:29.623Z,13.40
2019-03-20T16:51:30.883Z,12.70
2019-03-20T16:53:32.178Z,99.97
2019-03-20T16:55:33.330Z,19.55
2019-03-20T16:57:34.485Z,11.78
2019-03-20T16:59:35.634Z,15.03
2019-03-20T17:01:36.909Z,28.75
2019-03-20T17:03:38.198Z,30.43
2019-03-20T17:05:39.426Z,12.07
2019-03-20T17:07:40.730Z,17.25
2019-03-20T17:09:41.957Z,16.90
2019-03-20T17:11:43.092Z,13.60
2019-03-20T17:13:44.231Z,9.40
2019-03-20T17:15:45.440Z,15.75
2019-03-20T17:17:46.577Z,12.20
2019-03-20T17:19:47.826Z,10.28
2019-03-20T17:21:48.973Z,17.60
2019-03-20T17:27:52.604Z,9.00
2019-03-20T17:29:53.813Z,16.80
2019-03-20T17:33:56.001Z,13.00
2019-03-20T17:35:57.153Z,15.50
2019-03-20T17:37:58.622Z,12.60
2019-03-20T17:40:00.063Z,15.70
2019-03-20T17:42:01.293Z,10.80
2019-03-20T17:44:03.437Z,27.40
2019-03-20T17:46:04.753Z,16.32
2019-03-20T17:48:05.943Z,25.40
2019-03-20T17:50:13.749Z,29.90
2019-03-20T17:52:14.982Z,76.57
2019-03-20T17:54:16.131Z,56.63
2019-03-20T17:56:17.366Z,30.10
2019-03-20T17:58:18.625Z,13.30
2019-03-20T18:00:27.422Z,13.65
2019-03-20T18:02:28.630Z,11.40
2019-03-20T18:04:29.773Z,18.25
2019-03-20T18:06:30.925Z,16.73
2019-03-20T18:08:32.152Z,22.75
2019-03-20T18:10:33.428Z,17.40
2019-03-20T18:12:34.734Z,18.57
2019-03-20T18:14:36.873Z,15.85
2019-03-20T18:16:38.076Z,13.32
2019-03-20T18:18:39.310Z,15.43
2019-03-20T18:20:40.596Z,15.55
2019-03-20T18:22:41.873Z,15.60
2019-03-20T18:24:43.141Z,20.25
2019-03-20T18:26:44.386Z,13.03
2019-03-20T18:28:45.598Z,33.90
2019-03-20T18:30:46.753Z,23.95
2019-03-20T18:32:47.908Z,30.85
2019-03-20T18:34:49.081Z,27.50
2019-03-20T18:36:52.134Z,18.42
2019-03-20T18:38:53.546Z,13.32
2019-03-20T18:40:54.813Z,14.58
2019-03-20T18:42:56.273Z,15.93
2019-03-20T18:44:57.485Z,12.37
2019-03-20T18:46:58.776Z,15.95
2019-03-20T18:48:59.974Z,15.08
2019-03-20T18:51:01.127Z,14.90
2019-03-20T18:53:02.464Z,14.03
2019-03-20T18:55:07.122Z,14.73
2019-03-20T18:57:08.291Z,22.98
2019-03-20T18:59:09.444Z,18.75
2019-03-20T19:01:16.360Z,18.00
2019-03-20T19:03:26.799Z,14.68
2019-03-20T19:05:50.126Z,15.03
2019-03-20T19:07:51.523Z,15.90
2019-03-20T19:09:52.834Z,21.97
2019-03-20T19:11:54.281Z,21.87
2019-03-20T19:13:55.462Z,22.30
2019-03-20T19:15:56.694Z,22.45
2019-03-20T19:17:58.125Z,20.82
2019-03-20T19:19:59.269Z,14.05
2019-03-20T19:22:00.424Z,17.90
2019-03-20T19:24:01.583Z,14.00
2019-03-20T19:26:03.138Z,20.50
2019-03-20T19:28:04.275Z,18.87
2019-03-20T19:30:20.182Z,18.35
2019-03-20T19:32:21.633Z,20.35
2019-03-20T19:34:22.823Z,16.25
2019-03-20T19:36:23.987Z,17.25
2019-03-20T19:38:34.488Z,18.70
2019-03-20T19:40:28.248Z,17.57
2019-03-20T19:42:29.477Z,17.77
2019-03-20T19:44:30.674Z,15.50
2019-03-20T19:46:31.920Z,24.02
2019-03-20T19:48:33.340Z,22.82
2019-03-20T19:50:34.509Z,18.12
2019-03-20T19:52:35.818Z,16.48
2019-03-20T19:54:36.994Z,25.03
2019-03-20T19:56:38.165Z,23.20
2019-03-20T19:58:39.310Z,31.52
2019-03-20T20:00:40.495Z,16.85
2019-03-20T20:02:41.894Z,21.93
2019-03-20T20:04:43.070Z,18.62
2019-03-20T20:06:44.302Z,19.40
2019-03-20T20:08:45.436Z,38.48
2019-03-20T20:10:46.585Z,29.55
2019-03-20T20:12:47.836Z,45.63
2019-03-20T20:14:48.982Z,42.58
2019-03-20T20:16:50.282Z,33.50
2019-03-20T20:18:51.429Z,30.50
2019-03-20T20:20:52.601Z,34.55
2019-03-20T20:22:53.758Z,46.00
2019-03-20T20:24:54.889Z,49.67
2019-03-20T20:26:56.038Z,56.23
2019-03-20T20:28:57.261Z,31.73
2019-03-20T20:30:58.409Z,59.55
2019-03-20T20:32:59.608Z,34.35
2019-03-20T20:35:01.210Z,36.42
2019-03-20T20:37:02.358Z,148.85
2019-03-20T20:39:05.103Z,204.97
2019-03-20T20:41:06.252Z,53.68
2019-03-20T20:43:07.398Z,40.85
2019-03-20T20:45:09.877Z,29.02
2019-03-20T20:47:11.030Z,31.87
2019-03-20T20:49:12.226Z,31.48
2019-03-20T20:51:14.677Z,27.75
2019-03-20T20:53:15.842Z,27.42
2019-03-20T20:55:21.206Z,30.37
2019-03-20T20:57:22.386Z,30.43
2019-03-20T20:59:23.586Z,26.62
2019-03-20T21:01:24.849Z,35.33
2019-03-20T21:03:26.002Z,28.90
2019-03-20T21:05:27.173Z,34.15
2019-03-20T21:07:28.326Z,28.95
2019-03-20T21:09:29.555Z,28.05
2019-03-20T21:11:30.714Z,26.48
2019-03-20T21:13:31.865Z,20.12
2019-03-20T21:15:38.628Z,21.50
2019-03-20T21:17:43.617Z,28.70
2019-03-20T21:19:44.778Z,25.97
2019-03-20T21:21:49.730Z,26.30
2019-03-20T21:24:22.897Z,26.55
2019-03-20T21:26:33.617Z,29.05
2019-03-20T21:29:10.322Z,30.80
2019-03-20T21:31:12.989Z,33.15
2019-03-20T21:33:17.942Z,32.83
2019-03-20T21:35:39.577Z,34.35
2019-03-20T21:37:53.220Z,26.68
2019-03-20T21:39:54.366Z,25.23
2019-03-20T21:42:07.840Z,24.45
2019-03-20T21:44:18.950Z,24.30
2019-03-20T21:46:47.077Z,17.95
2019-03-20T21:48:48.226Z,24.75
2019-03-20T21:50:53.493Z,21.73
2019-03-20T21:52:54.657Z,20.35
2019-03-20T21:55:17.177Z,22.60
2019-03-20T21:57:43.242Z,19.02
2019-03-20T22:00:12.207Z,21.48
2019-03-20T22:02:44.672Z,24.95
2019-03-20T22:04:45.832Z,23.95
2019-03-20T22:07:07.918Z,25.02
2019-03-20T22:09:10.978Z,19.25
2019-03-20T22:11:30.477Z,19.52
2019-03-20T22:13:38.603Z,18.20
2019-03-20T22:15:48.861Z,24.15
2019-03-20T22:18:22.789Z,26.80
2019-03-20T22:20:30.762Z,22.90
2019-03-20T22:22:38.787Z,18.30
2019-03-20T22:25:05.368Z,15.98
2019-03-20T22:27:10.327Z,14.58
2019-03-20T22:29:19.122Z,16.55
2019-03-20T22:31:20.365Z,15.38
2019-03-20T22:33:58.882Z,18.02
2019-03-20T22:36:00.025Z,16.35
2019-03-20T22:38:04.377Z,15.58
2019-03-20T22:40:15.193Z,16.00
2019-03-20T22:42:20.291Z,16.23
2019-03-20T22:44:22.130Z,16.85
2019-03-20T22:46:38.960Z,16.55
2019-03-20T22:49:04.858Z,16.80
2019-03-20T22:51:18.677Z,20.68
2019-03-20T22:53:46.298Z,19.55
2019-03-20T22:56:12.022Z,19.30
2019-03-20T22:58:42.440Z,25.75
2019-03-20T23:00:47.183Z,19.35
2019-03-20T23:03:00.894Z,23.07
2019-03-20T23:05:03.642Z,20.72
2019-03-20T23:07:04.853Z,25.50
2019-03-20T23:09:06.904Z,22.98
2019-03-20T23:11:08.381Z,22.48
2019-03-20T23:13:18.552Z,25.00
2019-03-20T23:15:15.483Z,25.32
2019-03-20T23:17:17.014Z,32.88
2019-03-20T23:19:18.169Z,30.75
2019-03-20T23:21:19.309Z,31.30
2019-03-20T23:23:20.500Z,31.23
2019-03-20T23:25:21.665Z,32.63
2019-03-20T23:27:24.510Z,31.80
2019-03-20T23:29:25.773Z,31.97
2019-03-20T23:31:26.922Z,35.50
2019-03-20T23:33:28.171Z,39.85
2019-03-20T23:35:29.312Z,30.37
2019-03-20T23:37:30.513Z,37.53
2019-03-20T23:39:31.919Z,36.58
2019-03-20T23:41:33.066Z,39.20
2019-03-20T23:43:34.193Z,38.13
2019-03-20T23:45:35.340Z,37.73
2019-03-20T23:47:40.321Z,26.00
2019-03-20T23:49:41.493Z,35.95
2019-03-20T23:51:42.766Z,39.53
2019-03-20T23:53:46.199Z,40.12
2019-03-20T23:55:47.383Z,36.60
2019-03-20T23:57:48.612Z,40.90
2019-03-20T23:59:49.765Z,39.80
